Time;durP1;ratioP1;P1;durP2;ratioP2;P2;SDS_P1;SDS_P2;PMS_P1;PMS_P2;Temp;Humidity;BMP_temperature;BMP_pressure;BME280_temperature;BME280_humidity;BME280_pressure;Samples;Min_cycle;Max_cycle;Signal;HPM_P1;HPM_P2
2023/08/31 00:00:42;;;;;;;16.15;13.65;;;;;;;15.41;68.95;98401.38;5093350;28;20020;-47
2023/08/31 00:03:09;;;;;;;16.88;13.27;;;;;;;15.50;68.53;98394.66;5094651;28;20405;-47
2023/08/31 00:05:42;;;;;;;18.02;11.25;;;;;;;15.58;68.55;98396.91;5094642;28;20021;-47
2023/08/31 00:08:08;;;;;;;15.20;9.10;;;;;;;15.62;68.21;98400.66;5094458;28;20031;-49
2023/08/31 00:10:35;;;;;;;14.35;8.13;;;;;;;15.60;68.02;98396.66;5094169;28;20079;-47
2023/08/31 00:13:06;;;;;;;9.30;6.13;;;;;;;15.63;67.96;98396.97;5093165;28;20048;-46
2023/08/31 00:15:32;;;;;;;7.03;5.75;;;;;;;15.68;67.85;98402.34;5094735;28;20401;-47
2023/08/31 00:17:59;;;;;;;12.23;5.63;;;;;;;15.73;67.57;98404.31;5094527;28;20048;-47
2023/08/31 00:20:26;;;;;;;8.75;4.90;;;;;;;15.77;67.44;98411.53;5094522;28;20454;-47
2023/08/31 00:22:52;;;;;;;11.02;5.40;;;;;;;15.79;67.22;98411.28;5093009;28;20029;-47
2023/08/31 00:25:18;;;;;;;16.80;5.80;;;;;;;15.80;67.24;98418.19;5076210;28;20032;-46
2023/08/31 00:27:48;;;;;;;11.23;6.22;;;;;;;15.81;67.21;98421.63;5094258;28;20023;-47
2023/08/31 00:30:14;;;;;;;11.73;6.68;;;;;;;15.82;67.30;98428.53;5076775;28;20097;-47
2023/08/31 00:32:42;;;;;;;12.95;8.18;;;;;;;15.81;67.12;98418.97;5076064;28;20079;-47
2023/08/31 00:35:08;;;;;;;15.60;9.05;;;;;;;15.80;67.10;98430.63;5093103;28;20409;-47
2023/08/31 00:37:34;;;;;;;19.98;10.82;;;;;;;15.78;67.09;98433.50;5092711;28;20024;-47
2023/08/31 00:40:00;;;;;;;18.40;12.10;;;;;;;15.75;67.31;98432.16;5093919;28;20489;-47
2023/08/31 00:42:25;;;;;;;17.35;10.15;;;;;;;15.77;67.58;98427.41;5092591;28;20553;-47
2023/08/31 00:44:51;;;;;;;15.68;10.85;;;;;;;15.86;67.69;98421.72;5093880;28;20024;-47
2023/08/31 00:47:17;;;;;;;15.77;9.82;;;;;;;15.94;67.51;98431.91;5092416;28;20016;-47
2023/08/31 00:49:43;;;;;;;17.65;7.60;;;;;;;16.03;67.11;98432.28;5092479;28;20404;-47
2023/08/31 00:52:09;;;;;;;12.68;7.75;;;;;;;16.07;66.97;98433.41;5093106;28;20448;-47
2023/08/31 00:54:36;;;;;;;13.35;6.88;;;;;;;16.11;66.84;98422.09;5093649;28;20020;-47
2023/08/31 00:57:03;;;;;;;10.13;5.68;;;;;;;16.13;66.69;98427.94;5093497;28;20027;-47
2023/08/31 00:59:29;;;;;;;10.55;5.72;;;;;;;16.11;66.48;98418.63;5093633;28;20485;-47
2023/08/31 01:02:03;;;;;;;13.48;6.18;;;;;;;16.10;66.75;98423.13;5093759;28;20371;-47
2023/08/31 01:04:52;;;;;;;9.82;5.35;;;;;;;16.10;66.68;98423.13;5093746;28;20028;-46
2023/08/31 01:07:57;;;;;;;6.95;5.30;;;;;;;16.10;66.34;98431.09;5093450;28;20475;-47
2023/08/31 01:10:40;;;;;;;9.27;6.00;;;;;;;16.11;66.28;98416.00;5091938;28;20532;-46
2023/08/31 01:13:14;;;;;;;9.98;5.70;;;;;;;16.09;66.34;98416.22;5092054;28;20494;-47
2023/08/31 01:15:46;;;;;;;10.48;5.93;;;;;;;16.07;66.41;98425.47;5093246;28;20024;-47
2023/08/31 01:18:15;;;;;;;10.77;5.55;;;;;;;16.01;66.60;98429.09;5091841;28;20111;-47
2023/08/31 01:21:01;;;;;;;10.85;5.70;;;;;;;15.88;66.77;98423.06;5093126;28;20020;-47
2023/08/31 01:23:33;;;;;;;9.05;6.00;;;;;;;15.72;66.98;98423.84;5093215;28;20042;-46
2023/08/31 01:25:59;;;;;;;9.60;5.93;;;;;;;15.64;67.41;98422.41;5093119;28;20520;-47
2023/08/31 01:28:25;;;;;;;10.95;7.13;;;;;;;15.58;67.58;98420.72;5091707;28;20147;-46
2023/08/31 01:30:50;;;;;;;19.13;8.23;;;;;;;15.48;67.78;98417.91;5091642;28;20055;-47
2023/08/31 01:33:16;;;;;;;13.55;7.63;;;;;;;15.35;68.30;98414.50;5092936;28;20498;-47
2023/08/31 01:35:52;;;;;;;16.30;8.38;;;;;;;15.17;69.04;98423.44;5092867;28;20386;-47
2023/08/31 01:38:24;;;;;;;15.43;8.30;;;;;;;15.05;69.82;98416.59;5092831;28;20031;-46
2023/08/31 01:40:58;;;;;;;14.93;8.40;;;;;;;14.93;70.33;98416.63;5092845;28;20527;-46
2023/08/31 01:43:24;;;;;;;13.52;8.75;;;;;;;14.85;70.42;98419.63;5092751;28;20020;-47
2023/08/31 01:45:50;;;;;;;14.40;8.32;;;;;;;14.84;70.95;98421.47;5092682;28;20024;-47
2023/08/31 01:48:16;;;;;;;13.88;8.30;;;;;;;14.93;71.08;98414.81;5092663;28;20547;-46
2023/08/31 01:50:43;;;;;;;16.58;8.43;;;;;;;15.08;70.97;98427.50;5092542;28;20028;-46
2023/08/31 01:53:09;;;;;;;15.65;8.43;;;;;;;15.20;70.94;98421.38;5092540;28;20047;-46
2023/08/31 01:55:37;;;;;;;22.80;9.30;;;;;;;15.32;70.55;98424.75;5092490;28;20024;-46
2023/08/31 01:58:03;;;;;;;15.23;8.52;;;;;;;15.36;69.85;98418.75;5091071;28;20028;-47
2023/08/31 02:00:28;;;;;;;15.20;7.68;;;;;;;15.37;70.13;98419.53;5092410;28;20603;-47
2023/08/31 02:02:54;;;;;;;16.05;7.75;;;;;;;15.36;69.79;98424.03;5092554;28;20024;-47
2023/08/31 02:05:19;;;;;;;11.43;7.60;;;;;;;15.28;69.68;98427.06;5092379;28;20309;-46
2023/08/31 02:07:45;;;;;;;15.25;6.70;;;;;;;15.18;69.84;98426.88;5090974;28;20028;-46
2023/08/31 02:10:11;;;;;;;12.82;6.10;;;;;;;15.11;70.10;98428.84;5091814;28;20041;-46
2023/08/31 02:12:37;;;;;;;9.55;6.25;;;;;;;15.13;70.26;98418.84;5092191;28;20082;-47
2023/08/31 02:15:06;;;;;;;14.07;6.50;;;;;;;15.18;70.38;98429.53;5090800;28;20063;-46
2023/08/31 02:17:32;;;;;;;12.90;6.38;;;;;;;15.17;70.24;98428.72;5092116;28;20024;-47
2023/08/31 02:19:58;;;;;;;9.13;6.32;;;;;;;15.21;70.35;98430.88;5092046;28;20032;-47
2023/08/31 02:22:24;;;;;;;10.02;6.13;;;;;;;15.16;70.21;98431.59;5092389;28;20020;-47
2023/08/31 02:24:50;;;;;;;10.05;5.60;;;;;;;15.12;70.68;98433.91;5092049;28;20028;-46
2023/08/31 02:27:15;;;;;;;11.75;5.97;;;;;;;15.18;70.80;98430.31;5091985;28;20560;-47
2023/08/31 02:29:41;;;;;;;12.05;5.60;;;;;;;15.27;70.92;98436.06;5092281;28;20028;-46
2023/08/31 02:32:07;;;;;;;11.27;6.22;;;;;;;15.36;70.79;98444.41;5091952;28;20095;-47
2023/08/31 02:34:33;;;;;;;11.48;5.90;;;;;;;15.47;70.68;98445.38;5092027;28;20023;-47
2023/08/31 02:36:58;;;;;;;73.40;13.27;;;;;;;15.52;70.47;98442.81;5091936;28;20458;-46
2023/08/31 02:39:24;;;;;;;56.05;9.90;;;;;;;15.53;70.45;98442.59;5091794;28;20426;-47
2023/08/31 02:41:50;;;;;;;26.55;7.65;;;;;;;15.54;70.47;98441.53;5090596;28;20025;-47
2023/08/31 02:44:15;;;;;;;16.73;6.82;;;;;;;15.56;70.50;98446.59;5091876;28;20047;-47
2023/08/31 02:46:41;;;;;;;20.45;6.70;;;;;;;15.57;70.42;98454.31;5091827;28;20020;-47
2023/08/31 02:49:07;;;;;;;13.48;6.97;;;;;;;15.57;70.61;98459.59;5091848;28;20054;-46
2023/08/31 02:51:32;;;;;;;14.43;6.68;;;;;;;15.58;71.11;98455.88;5073658;28;20027;-47
2023/08/31 02:53:58;;;;;;;10.10;6.05;;;;;;;15.58;71.65;98461.19;5091808;28;20375;-46
2023/08/31 02:56:24;;;;;;;22.80;8.32;;;;;;;15.55;71.52;98456.38;5091737;28;20028;-47
2023/08/31 02:58:49;;;;;;;15.73;5.82;;;;;;;15.50;71.47;98461.56;5090344;28;20028;-47
2023/08/31 03:01:15;;;;;;;23.70;7.25;;;;;;;15.40;71.54;98456.09;5091669;28;20339;-47
2023/08/31 03:03:42;;;;;;;47.25;9.00;;;;;;;15.25;71.71;98450.53;5090461;28;20040;-47
2023/08/31 03:06:09;;;;;;;33.97;6.53;;;;;;;15.12;72.21;98455.06;5091626;28;20052;-47
2023/08/31 03:08:36;;;;;;;30.55;6.90;;;;;;;14.97;72.51;98455.56;5073491;28;20028;-46
2023/08/31 03:11:03;;;;;;;29.90;7.53;;;;;;;14.83;72.70;98458.69;5091378;28;20525;-46
2023/08/31 03:13:28;;;;;;;23.83;6.50;;;;;;;14.68;73.22;98461.84;5090350;28;20024;-47
2023/08/31 03:15:56;;;;;;;12.68;6.28;;;;;;;14.57;73.62;98458.97;5092173;28;20447;-46
2023/08/31 03:18:22;;;;;;;9.77;5.00;;;;;;;14.46;73.97;98461.59;5095398;28;20115;-46
2023/08/31 03:20:48;;;;;;;14.52;6.03;;;;;;;14.34;74.28;98466.88;5094207;28;20069;-47
2023/08/31 03:23:14;;;;;;;11.10;6.75;;;;;;;14.22;74.68;98460.81;5095438;28;20051;-46
2023/08/31 03:25:40;;;;;;;9.25;6.25;;;;;;;14.09;75.20;98462.63;5095384;28;20028;-47
2023/08/31 03:28:05;;;;;;;11.10;6.45;;;;;;;14.00;76.24;98469.28;5094168;28;20056;-47
2023/08/31 03:30:31;;;;;;;13.13;5.00;;;;;;;13.91;76.65;98478.56;5094033;28;20371;-47
2023/08/31 03:32:57;;;;;;;16.63;5.82;;;;;;;13.85;76.92;98468.91;5093913;28;20374;-47
2023/08/31 03:35:26;;;;;;;18.98;6.18;;;;;;;13.78;77.45;98475.09;5095253;28;20020;-47
2023/08/31 03:37:53;;;;;;;12.75;6.63;;;;;;;13.76;78.20;98471.88;5095202;28;20020;-47
2023/08/31 03:40:19;;;;;;;13.05;5.97;;;;;;;13.84;78.43;98464.66;5095003;28;20020;-47
2023/08/31 03:42:45;;;;;;;14.02;6.28;;;;;;;13.90;78.71;98474.31;5095096;28;20047;-47
2023/08/31 03:45:11;;;;;;;11.00;6.15;;;;;;;13.95;78.56;98475.25;5093707;28;20121;-46
2023/08/31 03:47:37;;;;;;;11.48;6.32;;;;;;;13.90;78.66;98484.84;5093698;28;20020;-47
2023/08/31 03:50:04;;;;;;;10.68;5.93;;;;;;;13.96;79.49;98483.94;5093602;28;20040;-47
2023/08/31 03:52:29;;;;;;;15.35;6.35;;;;;;;14.02;79.21;98484.88;5076864;28;20027;-47
2023/08/31 03:54:55;;;;;;;19.02;6.47;;;;;;;13.98;78.99;98485.34;5094824;28;20028;-47
2023/08/31 03:57:21;;;;;;;9.27;6.00;;;;;;;13.94;79.10;98486.00;5093588;28;20024;-47
2023/08/31 03:59:47;;;;;;;13.40;6.10;;;;;;;13.92;79.40;98494.16;5094721;28;20031;-47
2023/08/31 04:02:12;;;;;;;13.13;6.10;;;;;;;13.88;79.11;98495.63;5094756;28;20024;-47
2023/08/31 04:04:38;;;;;;;12.10;6.03;;;;;;;13.81;79.52;98492.31;5094726;28;20032;-47
2023/08/31 04:07:04;;;;;;;13.30;5.88;;;;;;;13.76;79.65;98494.78;5094640;28;20020;-47
2023/08/31 04:09:30;;;;;;;12.18;5.13;;;;;;;13.75;80.39;98496.63;5094336;28;20033;-47
2023/08/31 04:11:56;;;;;;;17.45;7.35;;;;;;;13.86;80.69;98504.81;5093197;28;20032;-46
2023/08/31 04:14:21;;;;;;;32.15;7.68;;;;;;;13.96;80.97;98494.50;5094577;28;20020;-47
2023/08/31 04:16:50;;;;;;;15.38;6.40;;;;;;;14.03;80.73;98503.13;5094446;28;20020;-47
2023/08/31 04:19:16;;;;;;;11.55;6.70;;;;;;;14.03;80.35;98512.88;5093070;28;20027;-47
2023/08/31 04:21:43;;;;;;;10.52;5.78;;;;;;;14.01;80.38;98521.03;5094366;28;20016;-47
2023/08/31 04:24:08;;;;;;;11.95;5.80;;;;;;;13.94;80.37;98518.50;5094222;28;20374;-47
2023/08/31 04:26:34;;;;;;;7.88;5.63;;;;;;;13.95;80.47;98525.38;5093200;28;20039;-47
2023/08/31 04:29:00;;;;;;;9.05;5.95;;;;;;;13.92;80.66;98533.75;5093975;28;20028;-47
2023/08/31 04:31:25;;;;;;;12.48;5.50;;;;;;;13.82;80.65;98528.19;5092888;28;20032;-47
2023/08/31 04:33:53;;;;;;;23.30;6.53;;;;;;;13.72;80.60;98528.75;5092778;28;20501;-47
2023/08/31 04:36:20;;;;;;;20.25;6.72;;;;;;;13.65;81.23;98535.13;5093990;28;20077;-47
2023/08/31 04:38:47;;;;;;;13.57;5.88;;;;;;;13.65;81.75;98535.94;5093981;28;20091;-47
2023/08/31 04:41:12;;;;;;;9.73;5.60;;;;;;;13.76;81.92;98531.72;5093927;28;20035;-47
2023/08/31 04:43:38;;;;;;;22.67;5.95;;;;;;;13.87;81.87;98546.78;5093927;28;20020;-47
2023/08/31 04:46:04;;;;;;;20.40;5.93;;;;;;;13.95;81.69;98546.47;5093752;28;20145;-47
2023/08/31 04:48:30;;;;;;;11.15;5.10;;;;;;;13.93;80.93;98545.09;5093828;28;20099;-47
2023/08/31 04:50:59;;;;;;;14.27;5.47;;;;;;;13.87;81.06;98551.28;5093768;28;20113;-47
2023/08/31 04:53:25;;;;;;;15.65;5.40;;;;;;;13.88;81.32;98543.13;5093708;28;20032;-47
2023/08/31 04:55:51;;;;;;;14.55;5.13;;;;;;;13.93;81.27;98545.09;5093545;28;20035;-47
2023/08/31 04:58:17;;;;;;;8.45;5.03;;;;;;;13.93;80.76;98550.38;5093763;28;20019;-47
2023/08/31 05:00:44;;;;;;;9.13;5.28;;;;;;;13.80;80.45;98553.97;5093529;28;20032;-47
2023/08/31 05:03:10;;;;;;;18.52;6.45;;;;;;;13.63;80.92;98553.81;5093494;28;20017;-46
2023/08/31 05:05:36;;;;;;;13.60;5.55;;;;;;;13.51;81.25;98553.75;5092500;28;20028;-47
2023/08/31 05:08:03;;;;;;;10.55;5.47;;;;;;;13.43;81.72;98554.06;5093445;28;20028;-47
2023/08/31 05:10:28;;;;;;;18.70;5.30;;;;;;;13.34;81.97;98553.56;5093231;28;20048;-47
2023/08/31 05:12:54;;;;;;;6.45;4.50;;;;;;;13.26;82.25;98560.94;5092038;28;20507;-46
2023/08/31 05:15:20;;;;;;;10.68;4.82;;;;;;;13.19;82.52;98561.81;5093299;28;20027;-47
2023/08/31 05:17:45;;;;;;;8.52;4.35;;;;;;;13.13;82.81;98565.31;5093293;28;20505;-46
2023/08/31 05:20:11;;;;;;;8.02;4.45;;;;;;;13.07;82.81;98574.09;5093037;28;20031;-46
2023/08/31 05:22:37;;;;;;;9.65;5.50;;;;;;;13.08;83.71;98574.91;5093165;28;20077;-47
2023/08/31 05:25:04;;;;;;;11.82;5.28;;;;;;;13.15;83.73;98573.81;5093088;28;20020;-46
2023/08/31 05:27:29;;;;;;;19.58;5.97;;;;;;;13.26;83.94;98571.47;5093101;28;20063;-46
2023/08/31 05:29:55;;;;;;;14.40;5.13;;;;;;;13.44;84.23;98573.31;5093195;28;20478;-47
2023/08/31 05:32:21;;;;;;;9.43;5.72;;;;;;;13.89;84.27;98567.69;5092898;28;20051;-47
2023/08/31 05:34:46;;;;;;;12.27;5.07;;;;;;;14.86;81.88;98580.56;5093121;28;20024;-47
2023/08/31 05:37:13;;;;;;;10.85;5.38;;;;;;;15.84;77.84;98579.94;5092866;28;20024;-47
2023/08/31 05:39:39;;;;;;;11.20;4.72;;;;;;;16.86;74.23;98580.78;5092438;28;20024;-47
2023/08/31 05:42:05;;;;;;;7.13;4.82;;;;;;;17.74;71.10;98568.34;5092739;28;20034;-47
2023/08/31 05:44:30;;;;;;;10.00;4.78;;;;;;;18.55;68.08;98574.66;5092702;28;20059;-46
2023/08/31 05:46:56;;;;;;;9.93;5.05;;;;;;;19.14;65.64;98581.69;5092680;28;20020;-47
2023/08/31 05:49:22;;;;;;;9.63;5.03;;;;;;;19.61;62.96;98586.13;5092684;28;20051;-46
2023/08/31 05:51:49;;;;;;;8.98;5.35;;;;;;;20.20;60.59;98582.25;5092562;28;20516;-45
2023/08/31 05:54:15;;;;;;;11.60;5.57;;;;;;;20.71;58.62;98582.28;5091290;28;20107;-44
2023/08/31 05:56:41;;;;;;;19.63;6.75;;;;;;;21.15;57.86;98580.84;5092454;28;20103;-45
2023/08/31 05:59:07;;;;;;;18.00;5.20;;;;;;;21.31;56.49;98578.94;5092934;28;20035;-44
2023/08/31 06:01:34;;;;;;;13.07;6.03;;;;;;;21.33;56.62;98579.47;5092753;28;20453;-45
2023/08/31 06:04:00;;;;;;;8.40;5.60;;;;;;;21.27;55.95;98592.03;5092371;28;20036;-45
2023/08/31 06:06:26;;;;;;;16.50;6.07;;;;;;;20.94;56.23;98596.91;5092274;28;20059;-45
2023/08/31 06:08:53;;;;;;;11.52;5.38;;;;;;;20.69;56.58;98604.97;5092046;28;20088;-45
2023/08/31 06:11:19;;;;;;;8.45;4.82;;;;;;;20.54;56.18;98597.72;5092236;28;20035;-45
2023/08/31 06:13:44;;;;;;;12.45;5.70;;;;;;;20.07;56.76;98601.44;5092231;28;20032;-45
2023/08/31 06:16:10;;;;;;;8.40;4.38;;;;;;;19.65;57.76;98605.84;5092200;28;20024;-45
2023/08/31 06:18:36;;;;;;;9.05;4.57;;;;;;;19.42;58.47;98603.63;5092126;28;20034;-45
2023/08/31 06:21:01;;;;;;;18.10;5.10;;;;;;;19.53;58.84;98606.06;5092147;28;20496;-45
2023/08/31 06:23:27;;;;;;;11.77;4.68;;;;;;;20.11;57.81;98602.53;5092361;28;20039;-45
2023/08/31 06:25:53;;;;;;;12.38;5.70;;;;;;;20.62;56.32;98604.44;5091988;28;20043;-45
2023/08/31 06:28:18;;;;;;;14.23;5.82;;;;;;;21.11;54.99;98590.47;5092338;28;20028;-45
2023/08/31 06:30:47;;;;;;;11.63;4.95;;;;;;;21.84;53.60;98594.47;5092005;28;20028;-45
2023/08/31 06:33:14;;;;;;;11.98;5.03;;;;;;;22.72;51.36;98592.75;5091949;28;20105;-45
2023/08/31 06:35:40;;;;;;;9.80;5.32;;;;;;;23.50;49.41;98583.59;5090678;28;20024;-45
2023/08/31 06:38:06;;;;;;;11.73;4.40;;;;;;;24.23;47.67;98583.41;5091840;28;20028;-45
2023/08/31 06:40:31;;;;;;;11.93;5.20;;;;;;;24.83;46.52;98586.16;5091857;28;20035;-45
2023/08/31 06:42:57;;;;;;;14.10;5.15;;;;;;;25.12;45.34;98583.19;5091908;28;20095;-45
2023/08/31 06:45:23;;;;;;;20.55;5.78;;;;;;;25.11;44.98;98586.16;5091845;28;20032;-45
2023/08/31 06:47:49;;;;;;;32.90;5.88;;;;;;;24.96;45.37;98598.00;5090545;28;20108;-45
2023/08/31 06:50:14;;;;;;;6.65;4.00;;;;;;;24.76;45.55;98601.06;5092719;28;20024;-46
2023/08/31 06:52:41;;;;;;;11.55;5.07;;;;;;;24.96;44.64;98607.94;5096017;28;20024;-45
2023/08/31 06:55:07;;;;;;;14.52;5.15;;;;;;;25.12;44.24;98607.34;5096236;28;20098;-45
2023/08/31 06:57:33;;;;;;;10.15;4.93;;;;;;;25.41;43.64;98600.91;5095954;28;20367;-46
2023/08/31 06:59:58;;;;;;;14.30;4.60;;;;;;;25.92;42.29;98607.13;5094816;28;20031;-45
2023/08/31 07:02:27;;;;;;;10.50;4.90;;;;;;;26.26;41.58;98603.13;5095857;28;20107;-45
2023/08/31 07:04:52;;;;;;;11.88;4.88;;;;;;;26.82;40.35;98611.69;5094483;28;20028;-45
2023/08/31 07:07:18;;;;;;;15.00;5.60;;;;;;;27.48;39.14;98617.19;5095716;28;20068;-46
2023/08/31 07:09:46;;;;;;;30.63;5.72;;;;;;;27.82;38.64;98616.44;5095309;28;20048;-45
2023/08/31 07:12:12;;;;;;;35.53;5.35;;;;;;;28.45;37.53;98625.03;5095639;28;20069;-45
2023/08/31 07:14:38;;;;;;;28.52;5.57;;;;;;;29.05;36.32;98625.22;5094329;28;20033;-46
2023/08/31 07:17:04;;;;;;;19.20;4.70;;;;;;;29.35;35.50;98617.16;5094217;28;20408;-46
2023/08/31 07:19:30;;;;;;;32.75;6.63;;;;;;;29.71;35.15;98615.81;5095495;28;20046;-46
2023/08/31 07:21:55;;;;;;;34.40;6.05;;;;;;;30.04;34.62;98613.19;5095416;28;20024;-45
2023/08/31 07:24:22;;;;;;;38.42;6.78;;;;;;;30.27;33.73;98611.72;5094094;28;20111;-46
2023/08/31 07:26:48;;;;;;;37.70;5.80;;;;;;;30.44;33.51;98621.63;5094029;28;20624;-46
2023/08/31 07:29:14;;;;;;;18.85;4.68;;;;;;;30.40;33.29;98620.69;5095350;28;20027;-46
2023/08/31 07:31:40;;;;;;;42.17;6.05;;;;;;;30.28;32.88;98617.94;5095264;28;20043;-46
2023/08/31 07:34:06;;;;;;;32.15;4.80;;;;;;;30.31;32.95;98619.22;5093982;28;20453;-46
2023/08/31 07:36:31;;;;;;;35.92;5.30;;;;;;;30.52;32.78;98619.94;5093876;28;20040;-46
2023/08/31 07:38:57;;;;;;;47.10;5.25;;;;;;;30.83;32.38;98630.31;5095281;28;20043;-46
2023/08/31 07:41:23;;;;;;;46.22;6.00;;;;;;;30.70;32.44;98622.50;5095088;28;20111;-46
2023/08/31 07:43:49;;;;;;;43.67;5.55;;;;;;;30.60;32.67;98638.03;5095364;28;20027;-46
2023/08/31 07:46:15;;;;;;;27.67;4.95;;;;;;;30.35;32.86;98625.56;5095263;28;20061;-46
2023/08/31 07:48:42;;;;;;;34.08;5.78;;;;;;;30.34;32.96;98635.56;5093648;28;20395;-46
2023/08/31 07:51:08;;;;;;;30.15;4.72;;;;;;;29.85;33.24;98636.09;5093624;28;20016;-46
2023/08/31 07:53:34;;;;;;;38.38;5.30;;;;;;;29.86;33.64;98643.13;5094865;28;20016;-46
2023/08/31 07:56:00;;;;;;;10.88;2.65;;;;;;;30.08;32.36;98635.78;5094844;28;20034;-46
2023/08/31 07:58:26;;;;;;;24.83;4.05;;;;;;;30.31;32.68;98641.66;5094796;28;20020;-46
2023/08/31 08:00:57;;;;;;;17.95;3.80;;;;;;;30.44;32.11;98646.00;5093082;28;20020;-46
2023/08/31 08:03:23;;;;;;;37.22;4.85;;;;;;;30.43;32.33;98649.84;5094765;28;20107;-46
2023/08/31 08:05:49;;;;;;;21.30;3.35;;;;;;;30.54;31.86;98649.41;5094540;28;20162;-46
2023/08/31 08:08:15;;;;;;;7.32;2.20;;;;;;;30.61;30.82;98657.81;5094573;28;20040;-46
2023/08/31 08:10:42;;;;;;;26.90;3.58;;;;;;;30.81;30.73;98648.81;5093128;28;20047;-46
2023/08/31 08:13:08;;;;;;;27.80;3.05;;;;;;;30.59;30.40;98646.50;5094479;28;20027;-46
2023/08/31 08:15:34;;;;;;;17.45;3.17;;;;;;;30.54;30.38;98649.41;5094478;28;20024;-46
2023/08/31 08:18:00;;;;;;;10.65;2.65;;;;;;;31.30;29.26;98636.47;5093122;28;20024;-46
2023/08/31 08:20:27;;;;;;;17.13;2.83;;;;;;;32.13;28.74;98645.97;5092976;28;20085;-46
2023/08/31 08:22:52;;;;;;;30.15;3.50;;;;;;;32.93;28.13;98648.91;5094290;28;20025;-46
2023/08/31 08:25:21;;;;;;;15.48;2.17;;;;;;;33.78;26.38;98647.41;5094364;28;20035;-46
2023/08/31 08:27:47;;;;;;;11.07;1.98;;;;;;;33.98;25.62;98648.22;5094268;28;20490;-46
2023/08/31 08:30:14;;;;;;;6.45;2.22;;;;;;;34.10;25.11;98654.69;5094185;28;20031;-46
2023/08/31 08:32:39;;;;;;;13.02;2.80;;;;;;;34.45;24.39;98653.84;5094093;28;20027;-46
2023/08/31 08:35:05;;;;;;;10.25;2.38;;;;;;;34.92;23.76;98655.50;5092827;28;20036;-46
2023/08/31 08:37:34;;;;;;;13.38;2.85;;;;;;;35.49;23.10;98650.16;5094017;28;20032;-46
2023/08/31 08:40:00;;;;;;;8.55;2.03;;;;;;;35.65;22.45;98647.28;5093957;28;20066;-46
2023/08/31 08:42:26;;;;;;;6.85;2.00;;;;;;;35.22;22.47;98657.56;5093952;28;20024;-46
2023/08/31 08:44:52;;;;;;;10.73;2.10;;;;;;;34.65;22.80;98658.13;5093946;28;20078;-46
2023/08/31 08:47:19;;;;;;;6.32;1.90;;;;;;;34.19;23.65;98668.94;5093859;28;20505;-45
2023/08/31 08:49:46;;;;;;;5.47;1.90;;;;;;;33.79;24.03;98668.06;5093779;28;20071;-46
2023/08/31 08:52:12;;;;;;;43.72;4.03;;;;;;;33.18;25.17;98676.72;5075680;28;20020;-46
2023/08/31 08:54:38;;;;;;;22.00;2.90;;;;;;;33.27;25.32;98690.16;5093772;28;20051;-46
2023/08/31 08:57:04;;;;;;;15.23;2.30;;;;;;;32.97;25.58;98677.75;5092395;28;20066;-46
2023/08/31 08:59:31;;;;;;;18.23;2.83;;;;;;;32.92;26.05;98678.03;5093611;28;20063;-46
2023/08/31 09:01:57;;;;;;;53.92;5.55;;;;;;;32.72;26.26;98676.31;5093835;28;20394;-47
2023/08/31 09:04:23;;;;;;;18.90;2.80;;;;;;;33.00;25.85;98670.81;5092216;28;20024;-46
2023/08/31 09:06:51;;;;;;;13.32;2.00;;;;;;;33.43;24.86;98666.44;5092102;28;20164;-46
2023/08/31 09:09:17;;;;;;;32.78;4.68;;;;;;;34.12;24.74;98666.03;5094694;28;20414;-46
2023/08/31 09:11:44;;;;;;;14.35;2.90;;;;;;;35.03;23.43;98666.56;5089466;28;20066;-46
2023/08/31 09:14:17;;;;;;;14.82;2.72;;;;;;;36.09;22.47;98666.59;5091605;28;20024;-46
2023/08/31 09:16:49;;;;;;;25.80;2.95;;;;;;;36.84;21.92;98665.88;5092349;28;20111;-46
2023/08/31 09:19:22;;;;;;;57.63;5.88;;;;;;;37.46;21.74;98668.75;5092310;28;20081;-46
2023/08/31 09:21:49;;;;;;;10.48;2.45;;;;;;;37.85;20.39;98656.47;5091026;28;20402;-46
2023/08/31 09:24:17;;;;;;;12.88;2.25;;;;;;;38.35;20.18;98654.75;5092281;28;20511;-46
2023/08/31 09:26:47;;;;;;;7.45;2.00;;;;;;;38.36;18.87;98641.81;5092194;28;20389;-47
2023/08/31 09:29:13;;;;;;;74.95;6.80;;;;;;;37.46;20.38;98654.28;5092122;28;20107;-46
2023/08/31 09:31:46;;;;;;;9.10;1.85;;;;;;;36.41;20.58;98649.81;5090746;28;20123;-46
2023/08/31 09:34:14;;;;;;;43.03;4.47;;;;;;;36.33;21.19;98645.44;5092107;28;20023;-46
2023/08/31 09:36:39;;;;;;;51.63;3.85;;;;;;;36.06;21.43;98652.88;5090702;28;20482;-47
2023/08/31 09:39:06;;;;;;;33.63;3.90;;;;;;;36.33;20.95;98654.41;5092160;28;20028;-46
2023/08/31 09:41:34;;;;;;;100.20;8.65;;;;;;;36.83;21.00;98648.69;5090610;28;20409;-46
2023/08/31 09:44:25;;;;;;;22.88;2.60;;;;;;;36.18;20.79;98647.19;5091947;28;20020;-46
2023/08/31 09:46:52;;;;;;;98.45;8.50;;;;;;;35.82;22.02;98652.22;5088808;28;20394;-46
2023/08/31 09:49:21;;;;;;;117.20;8.90;;;;;;;36.68;20.88;98655.19;5092093;28;20396;-46
2023/08/31 09:51:48;;;;;;;143.25;11.63;;;;;;;37.15;20.53;98648.97;5091763;28;20038;-46
2023/08/31 09:54:16;;;;;;;164.60;15.15;;;;;;;37.29;20.39;98655.72;5091847;28;20501;-47
2023/08/31 09:56:43;;;;;;;50.85;4.50;;;;;;;37.74;19.85;98659.94;5091691;28;20020;-47
2023/08/31 09:59:14;;;;;;;147.20;12.40;;;;;;;38.06;19.96;98659.34;5091629;28;20028;-47
2023/08/31 10:01:41;;;;;;;167.95;12.82;;;;;;;37.68;19.32;98658.72;5091668;28;20027;-46
2023/08/31 10:04:08;;;;;;;144.50;11.50;;;;;;;36.91;20.23;98665.97;5091587;28;20449;-46
2023/08/31 10:06:39;;;;;;;27.92;3.58;;;;;;;36.02;21.23;98663.00;5091493;28;20027;-46
2023/08/31 10:09:06;;;;;;;165.80;13.23;;;;;;;36.54;21.07;98664.81;5091498;28;20082;-46
2023/08/31 10:11:32;;;;;;;55.95;5.75;;;;;;;37.64;19.38;98657.94;5091801;28;20539;-46
2023/08/31 10:13:59;;;;;;;69.40;6.35;;;;;;;38.09;19.07;98666.78;5040646;28;1461559;-46
2023/08/31 10:16:28;;;;;;;68.28;7.32;;;;;;;36.76;20.02;98665.84;5090897;28;20033;-46
2023/08/31 10:18:57;;;;;;;34.00;3.95;;;;;;;35.34;21.35;98665.56;5092395;28;20020;-46
2023/08/31 10:21:23;;;;;;;11.98;2.08;;;;;;;34.16;22.49;98672.34;5092168;28;20020;-46
2023/08/31 10:23:49;;;;;;;31.63;3.88;;;;;;;33.73;23.17;98666.00;5092113;28;20024;-46
2023/08/31 10:26:29;;;;;;;5.03;1.95;;;;;;;32.98;23.33;98667.66;5092096;28;20015;-46
2023/08/31 10:28:56;;;;;;;9.93;2.75;;;;;;;32.72;24.62;98662.72;5092064;28;20078;-46
2023/08/31 10:31:23;;;;;;;7.38;1.88;;;;;;;33.08;24.17;98664.41;5091989;28;20070;-46
2023/08/31 10:33:59;;;;;;;9.55;2.28;;;;;;;32.93;23.89;98657.06;5091999;28;20031;-46
2023/08/31 10:36:39;;;;;;;5.65;2.03;;;;;;;32.50;24.44;98651.28;5091975;28;20051;-46
2023/08/31 10:39:11;;;;;;;17.50;2.50;;;;;;;31.53;25.40;98647.66;5091802;28;20035;-45
2023/08/31 10:41:37;;;;;;;7.88;2.40;;;;;;;30.71;26.29;98643.03;5092175;28;20043;-45
2023/08/31 10:44:17;;;;;;;27.35;3.75;;;;;;;30.86;26.78;98647.81;5090574;28;20476;-46
2023/08/31 10:46:43;;;;;;;36.92;6.05;;;;;;;32.01;26.00;98640.59;5091799;28;20107;-46
2023/08/31 10:49:09;;;;;;;922.30;821.47;;;;;;;33.17;25.20;98640.59;5091823;28;20032;-46
2023/08/31 10:51:36;;;;;;;1253.30;929.55;;;;;;;34.49;23.34;98641.06;5092036;28;20032;-46
2023/08/31 10:54:06;;;;;;;187.63;168.10;;;;;;;34.86;22.26;98643.31;5091729;28;20031;-46
2023/08/31 10:56:32;;;;;;;22.77;16.65;;;;;;;34.85;22.11;98647.19;5091607;28;20035;-46
2023/08/31 10:58:59;;;;;;;57.88;41.40;;;;;;;35.05;22.77;98643.22;5090321;28;20498;-46
2023/08/31 11:01:57;;;;;;;40.22;22.88;;;;;;;35.39;22.68;98630.53;5091931;28;20424;-46
2023/08/31 11:04:51;;;;;;;9.70;2.92;;;;;;;34.95;21.92;98641.13;5091972;28;20031;-46
2023/08/31 11:07:23;;;;;;;4.82;2.53;;;;;;;34.47;22.35;98638.72;5090248;28;20103;-46
2023/08/31 11:09:49;;;;;;;9.45;2.65;;;;;;;34.55;22.05;98639.63;5090421;28;20032;-46
2023/08/31 11:12:15;;;;;;;14.45;3.50;;;;;;;33.72;23.08;98645.34;5091417;28;20147;-46
2023/08/31 11:14:41;;;;;;;9.50;3.13;;;;;;;32.72;24.17;98639.06;5090393;28;20035;-46
2023/08/31 11:17:08;;;;;;;22.00;3.58;;;;;;;32.38;24.33;98630.38;5090283;28;20035;-46
2023/08/31 11:19:35;;;;;;;13.18;3.17;;;;;;;31.91;25.15;98630.97;5091471;28;20498;-46
2023/08/31 11:22:04;;;;;;;19.10;5.45;;;;;;;31.24;25.94;98627.78;5091513;28;20402;-46
2023/08/31 11:24:31;;;;;;;27.10;5.25;;;;;;;30.71;26.65;98632.19;5090196;28;20031;-46
2023/08/31 11:26:58;;;;;;;10.77;3.17;;;;;;;30.52;28.08;98630.78;5091727;28;20020;-46